Time;durP1;ratioP1;P1;durP2;ratioP2;P2;SDS_P1;SDS_P2;PMS_P1;PMS_P2;Temp;Humidity;BMP_temperature;BMP_pressure;BME280_temperature;BME280_humidity;BME280_pressure;Samples;Min_cycle;Max_cycle;Signal;HPM_P1;HPM_P2
2022/12/04 00:01:33;;;;;;;65.63;29.67;;;;;;;0.33;100.00;101615.53;5226394;28;20052;-68
2022/12/04 00:04:05;;;;;;;67.15;30.33;;;;;;;0.36;100.00;101610.19;5230287;28;20614;-68
2022/12/04 00:06:36;;;;;;;64.20;28.70;;;;;;;0.39;100.00;101615.38;5226287;28;20033;-68
2022/12/04 00:09:08;;;;;;;66.65;28.52;;;;;;;0.36;100.00;101607.56;5225893;28;20033;-68
2022/12/04 00:11:40;;;;;;;62.85;28.45;;;;;;;0.37;100.00;101604.91;5226071;28;20040;-68
2022/12/04 00:14:11;;;;;;;65.38;29.00;;;;;;;0.34;100.00;101604.13;5226501;28;20033;-68
2022/12/04 00:16:43;;;;;;;64.10;29.23;;;;;;;0.32;100.00;101600.66;5226609;28;20068;-68
2022/12/04 00:19:15;;;;;;;64.05;28.88;;;;;;;0.32;100.00;101603.28;5226965;28;21369;-68
2022/12/04 00:21:48;;;;;;;64.43;29.20;;;;;;;0.43;100.00;101603.06;5225305;28;20060;-68
2022/12/04 00:24:19;;;;;;;67.13;30.35;;;;;;;0.41;100.00;101596.97;5225457;28;20056;-68
2022/12/04 00:26:51;;;;;;;73.10;30.67;;;;;;;0.37;100.00;101601.44;5225824;28;20057;-68
2022/12/04 00:29:22;;;;;;;62.65;29.35;;;;;;;0.37;100.00;101601.44;5226495;28;20029;-68
2022/12/04 00:31:54;;;;;;;68.20;30.33;;;;;;;0.39;100.00;101599.63;5222643;28;20103;-68
2022/12/04 00:34:27;;;;;;;71.63;30.17;;;;;;;0.35;100.00;101598.84;5226818;28;20043;-68
2022/12/04 00:36:58;;;;;;;68.20;31.40;;;;;;;0.38;100.00;101595.25;5243519;28;20945;-68
2022/12/04 00:39:29;;;;;;;66.00;29.85;;;;;;;0.34;100.00;101601.47;5222920;28;20036;-68
2022/12/04 00:42:00;;;;;;;62.63;28.55;;;;;;;0.35;100.00;101592.72;5225543;28;20108;-68
2022/12/04 00:44:32;;;;;;;67.85;29.80;;;;;;;0.32;100.00;101595.41;5227836;28;20037;-68
2022/12/04 00:47:03;;;;;;;63.08;29.52;;;;;;;0.33;100.00;101595.38;5224413;28;20045;-68
2022/12/04 00:49:34;;;;;;;65.53;29.83;;;;;;;0.33;100.00;101589.28;5223320;28;20029;-68
2022/12/04 00:52:06;;;;;;;68.28;31.27;;;;;;;0.31;100.00;101594.56;5226777;28;20075;-68
2022/12/04 00:54:37;;;;;;;69.50;31.27;;;;;;;0.28;100.00;101591.13;5222205;28;20038;-68
2022/12/04 00:57:08;;;;;;;60.83;29.55;;;;;;;0.34;100.00;101590.97;5227909;28;20048;-68
2022/12/04 00:59:39;;;;;;;64.68;28.35;;;;;;;0.37;100.00;101591.78;5226624;28;20029;-68
2022/12/04 01:02:11;;;;;;;70.10;31.13;;;;;;;0.33;100.00;101592.75;5225856;28;20495;-68
2022/12/04 01:04:42;;;;;;;66.05;30.95;;;;;;;0.31;100.00;101593.69;5226385;28;20556;-68
2022/12/04 01:07:13;;;;;;;68.35;30.10;;;;;;;0.34;100.00;101598.84;5223570;28;20615;-68
2022/12/04 01:09:44;;;;;;;65.90;29.77;;;;;;;0.38;100.00;101600.50;5223978;28;20446;-68
2022/12/04 01:12:16;;;;;;;65.75;31.17;;;;;;;0.37;100.00;101604.06;5224999;28;20575;-68
2022/12/04 01:14:47;;;;;;;69.72;30.38;;;;;;;0.33;100.00;101603.25;5229723;28;20484;-68
2022/12/04 01:17:18;;;;;;;65.75;29.98;;;;;;;0.32;100.00;101605.91;5236132;28;20386;-68
2022/12/04 01:19:49;;;;;;;64.68;30.48;;;;;;;0.34;100.00;101596.22;5230758;28;20081;-68
2022/12/04 01:22:21;;;;;;;65.13;28.63;;;;;;;0.34;100.00;101604.97;5228410;28;20045;-68
2022/12/04 01:24:56;;;;;;;60.97;28.23;;;;;;;0.30;100.00;101607.69;5224330;28;20083;-68
2022/12/04 01:27:27;;;;;;;60.45;28.90;;;;;;;0.43;100.00;101610.94;5222166;28;20075;-68
2022/12/04 01:29:58;;;;;;;60.85;29.00;;;;;;;0.36;100.00;101605.78;5221969;28;20120;-68
2022/12/04 01:32:29;;;;;;;64.72;29.45;;;;;;;0.35;100.00;101598.84;5218332;28;20041;-68
2022/12/04 01:35:01;;;;;;;64.97;29.40;;;;;;;0.32;100.00;101609.38;5219892;28;20092;-68
2022/12/04 01:37:32;;;;;;;65.00;29.67;;;;;;;0.36;100.00;101611.03;5226952;28;20025;-68
2022/12/04 01:40:05;;;;;;;65.75;28.20;;;;;;;0.33;100.00;101608.50;5220102;28;20030;-68
2022/12/04 01:42:36;;;;;;;63.10;29.05;;;;;;;0.34;100.00;101607.59;5219276;28;20108;-68
2022/12/04 01:45:37;;;;;;;67.53;30.55;;;;;;;0.42;100.00;101606.56;5230705;28;20029;-68
2022/12/04 01:48:25;;;;;;;65.57;29.58;;;;;;;0.37;100.00;101604.91;5227244;28;20112;-68
2022/12/04 01:51:20;;;;;;;62.13;28.23;;;;;;;0.40;100.00;101598.72;5224254;28;20116;-68
2022/12/04 01:53:58;;;;;;;63.47;29.58;;;;;;;0.34;100.00;101590.97;5226105;28;20111;-68
2022/12/04 01:56:41;;;;;;;61.90;27.98;;;;;;;0.36;100.00;101591.81;5231733;28;20033;-68
2022/12/04 01:59:16;;;;;;;63.53;28.52;;;;;;;0.32;100.00;101595.41;5227308;28;20499;-68
2022/12/04 02:02:04;;;;;;;65.15;29.02;;;;;;;0.39;100.00;101586.50;5228146;28;20411;-68
2022/12/04 02:04:38;;;;;;;62.72;29.90;;;;;;;0.36;100.00;101586.56;5226315;28;20116;-68
2022/12/04 02:07:10;;;;;;;;;;;;;;;0.42;100.00;101585.56;5226974;28;20029;-68
2022/12/04 02:09:42;;;;;;;58.25;28.50;;;;;;;0.34;100.00;101580.50;5230145;28;19978;-68
2022/12/04 02:12:27;;;;;;;62.00;29.48;;;;;;;0.35;100.00;101587.47;5226646;28;20091;-68
2022/12/04 02:15:12;;;;;;;64.15;30.08;;;;;;;0.36;100.00;101583.94;5226587;28;20112;-68
2022/12/04 02:18:31;;;;;;;62.75;28.90;;;;;;;0.38;100.00;101590.03;5230145;28;20107;-69
2022/12/04 02:21:17;;;;;;;60.40;29.67;;;;;;;0.34;100.00;101578.72;5229801;28;20519;-68
2022/12/04 02:23:54;;;;;;;62.55;28.52;;;;;;;0.36;100.00;101578.69;5225530;28;20033;-68
2022/12/04 02:26:52;;;;;;;61.42;29.27;;;;;;;0.29;100.00;101585.84;5226999;28;20037;-68
2022/12/04 02:29:48;;;;;;;65.60;29.48;;;;;;;0.31;100.00;101583.19;5225767;28;20061;-68
2022/12/04 02:32:37;;;;;;;59.45;28.42;;;;;;;0.29;100.00;101587.59;5227430;28;20038;-68
2022/12/04 02:35:32;;;;;;;62.50;30.55;;;;;;;0.33;100.00;101582.25;5225317;28;20104;-68
2022/12/04 02:38:17;;;;;;;68.63;30.70;;;;;;;0.36;100.00;101584.78;5226932;28;20068;-68
2022/12/04 02:40:52;;;;;;;65.80;30.70;;;;;;;0.31;100.00;101576.19;5229445;28;20147;-68
2022/12/04 02:43:36;;;;;;;63.83;29.65;;;;;;;0.31;100.00;101584.06;5224675;28;20044;-68
2022/12/04 02:46:15;;;;;;;65.38;30.98;;;;;;;0.33;100.00;101589.28;5223008;28;20056;-68
2022/12/04 02:48:50;;;;;;;61.40;29.30;;;;;;;0.28;100.00;101580.63;5223354;28;20523;-68
2022/12/04 02:51:25;;;;;;;62.40;29.73;;;;;;;0.26;100.00;101582.44;5224596;28;20088;-68
2022/12/04 02:54:03;;;;;;;60.80;30.35;;;;;;;0.25;100.00;101581.56;5224533;28;20037;-68
2022/12/04 02:56:39;;;;;;;69.40;31.98;;;;;;;0.31;100.00;101570.06;5227019;28;20152;-68
2022/12/04 02:59:16;;;;;;;66.43;30.42;;;;;;;0.30;100.00;101563.09;5226628;28;20040;-68
2022/12/04 03:01:53;;;;;;;62.03;29.73;;;;;;;0.29;100.00;101569.22;5229036;28;20032;-68
2022/12/04 03:04:29;;;;;;;66.20;31.23;;;;;;;0.24;100.00;101573.72;5227985;28;20029;-68
2022/12/04 03:07:12;;;;;;;61.20;30.23;;;;;;;0.28;100.00;101573.59;5228977;28;20021;-68
2022/12/04 03:09:55;;;;;;;66.15;29.88;;;;;;;0.22;100.00;101565.88;5225435;28;20033;-68
2022/12/04 03:12:35;;;;;;;65.47;30.70;;;;;;;0.23;100.00;101572.88;5230451;28;20021;-68
2022/12/04 03:15:13;;;;;;;63.05;30.10;;;;;;;0.25;100.00;101570.19;5232731;28;20036;-68
2022/12/04 03:18:16;;;;;;;62.42;30.75;;;;;;;0.28;100.00;101573.59;5226764;28;20902;-68
2022/12/04 03:20:51;;;;;;;61.85;30.52;;;;;;;0.26;100.00;101571.94;5202364;28;20041;-68
2022/12/04 03:23:30;;;;;;;66.90;31.30;;;;;;;0.31;100.00;101570.94;5225979;28;20204;-68
2022/12/04 03:26:09;;;;;;;61.90;29.55;;;;;;;0.29;100.00;101572.72;5227267;28;20107;-68
2022/12/04 03:28:43;;;;;;;68.40;31.92;;;;;;;0.26;100.00;101571.94;5225897;28;20112;-68
2022/12/04 03:31:21;;;;;;;63.95;30.50;;;;;;;0.37;100.00;101564.69;5224775;28;20580;-68
2022/12/04 03:33:56;;;;;;;64.78;31.52;;;;;;;0.26;100.00;101558.81;5222456;28;20037;-68
2022/12/04 03:36:35;;;;;;;66.95;30.52;;;;;;;0.26;100.00;101566.69;5226923;28;20091;-68
2022/12/04 03:39:23;;;;;;;66.93;32.13;;;;;;;0.33;100.00;101565.66;5225763;28;20083;-68
2022/12/04 03:42:17;;;;;;;66.53;30.73;;;;;;;0.31;100.00;101563.06;5226204;28;20025;-68
2022/12/04 03:44:51;;;;;;;70.47;33.22;;;;;;;0.31;100.00;101563.06;5226312;28;20499;-68
2022/12/04 03:47:33;;;;;;;65.68;30.30;;;;;;;0.27;100.00;101558.78;5223682;28;20032;-68
2022/12/04 03:50:21;;;;;;;65.72;31.13;;;;;;;0.30;100.00;101558.69;5224222;28;20400;-68
2022/12/04 03:52:59;;;;;;;66.68;32.47;;;;;;;0.31;100.00;101559.56;5224601;28;20034;-68
2022/12/04 03:55:52;;;;;;;63.20;30.85;;;;;;;0.29;100.00;101562.22;5230342;28;20463;-68
2022/12/04 03:58:28;;;;;;;64.63;30.17;;;;;;;0.28;100.00;101559.63;5226246;28;20061;-68
2022/12/04 04:01:02;;;;;;;67.22;31.20;;;;;;;0.24;100.00;101556.22;5225086;28;20116;-68
2022/12/04 04:03:35;;;;;;;;;;;;;;;0.32;100.00;101563.91;5229716;28;20025;-68
2022/12/04 04:06:12;;;;;;;67.50;30.88;;;;;;;0.31;100.00;101555.19;5224657;28;19917;-68
2022/12/04 04:08:48;;;;;;;66.63;31.85;;;;;;;0.26;100.00;101556.19;5226943;28;20487;-68
2022/12/04 04:11:26;;;;;;;65.65;30.95;;;;;;;0.22;100.00;101551.91;5225457;28;20033;-68
2022/12/04 04:25:52;;;;;;;64.88;31.20;;;;;;;0.23;100.00;101554.50;5226299;28;20430;-68
2022/12/04 04:28:35;;;;;;;68.47;31.73;;;;;;;0.24;100.00;101553.59;5224574;28;20037;-68
2022/12/04 04:31:26;;;;;;;68.88;33.58;;;;;;;0.30;100.00;101557.84;5223638;28;20029;-68
2022/12/04 04:34:06;;;;;;;68.95;32.80;;;;;;;0.22;100.00;101551.91;5224685;28;20030;-68
2022/12/04 04:36:52;;;;;;;65.25;32.53;;;;;;;0.25;100.00;101551.81;5225686;28;20028;-68
2022/12/04 04:39:33;;;;;;;65.13;29.38;;;;;;;0.23;100.00;101548.38;5225416;28;20487;-68
2022/12/04 04:42:15;;;;;;;64.28;31.08;;;;;;;0.29;100.00;101558.72;5224152;28;20025;-68
2022/12/04 04:44:58;;;;;;;65.85;32.00;;;;;;;0.29;100.00;101556.97;5226053;28;20025;-68
2022/12/04 04:47:53;;;;;;;63.03;31.92;;;;;;;0.24;100.00;101557.97;5228016;28;20337;-68
2022/12/04 04:50:26;;;;;;;68.72;30.80;;;;;;;0.28;100.00;101555.25;5225818;28;20106;-68
2022/12/04 04:53:04;;;;;;;68.45;31.83;;;;;;;0.27;100.00;101560.50;5224042;28;20026;-68
2022/12/04 04:55:36;;;;;;;65.95;31.67;;;;;;;0.24;100.00;101555.34;5223469;28;20175;-68
2022/12/04 04:58:10;;;;;;;68.38;32.67;;;;;;;0.27;100.00;101560.50;5228107;28;20025;-68
2022/12/04 05:01:03;;;;;;;74.35;35.13;;;;;;;0.29;100.00;101559.59;5225172;28;20491;-68
2022/12/04 05:03:34;;;;;;;65.57;30.73;;;;;;;0.28;100.00;101562.25;5216713;28;20037;-68
2022/12/04 05:06:05;;;;;;;65.40;30.45;;;;;;;0.33;100.00;101563.88;5222616;28;20039;-67
2022/12/04 05:08:37;;;;;;;69.18;32.20;;;;;;;0.30;100.00;101565.72;5222919;28;20131;-67
2022/12/04 05:11:13;;;;;;;67.13;32.90;;;;;;;0.36;100.00;101566.41;5224959;28;20091;-68
2022/12/04 05:13:44;;;;;;;67.53;32.15;;;;;;;0.38;100.00;101562.03;5224791;28;20029;-67
2022/12/04 05:16:16;;;;;;;66.35;31.15;;;;;;;0.32;100.00;101556.03;5224832;28;20110;-67
2022/12/04 05:21:37;;;;;;;70.40;31.63;;;;;;;0.32;100.00;101558.66;5230725;28;20033;-68
2022/12/04 05:24:08;;;;;;;64.20;30.92;;;;;;;0.34;100.00;101565.59;5228403;28;20037;-67
2022/12/04 05:26:40;;;;;;;65.90;31.15;;;;;;;0.42;100.00;101557.53;5235368;28;20030;-67
2022/12/04 05:29:11;;;;;;;73.85;33.05;;;;;;;0.39;100.00;101566.38;5241223;28;20033;-68
2022/12/04 05:31:42;;;;;;;66.88;31.42;;;;;;;0.37;100.00;101557.66;5236209;28;20563;-68
2022/12/04 05:34:14;;;;;;;63.63;31.17;;;;;;;0.33;100.00;101560.41;5230464;28;20033;-68
2022/12/04 05:36:45;;;;;;;65.60;30.38;;;;;;;0.32;100.00;101556.03;5228114;28;20179;-68
2022/12/04 05:39:16;;;;;;;68.07;31.70;;;;;;;0.32;100.00;101556.03;5229518;28;20037;-67
2022/12/04 05:41:47;;;;;;;65.22;31.10;;;;;;;0.31;100.00;101554.31;5230952;28;20117;-67
2022/12/04 05:44:19;;;;;;;65.05;31.13;;;;;;;0.35;100.00;101550.72;5228608;28;20119;-67
2022/12/04 05:46:50;;;;;;;69.40;31.52;;;;;;;0.33;100.00;101557.78;5225699;28;20033;-67
2022/12/04 05:49:22;;;;;;;68.45;33.00;;;;;;;0.39;100.00;101547.13;5241676;28;21683;-67
2022/12/04 05:51:53;;;;;;;66.65;32.13;;;;;;;0.33;100.00;101542.88;5228507;28;20160;-67
2022/12/04 05:54:24;;;;;;;70.75;32.95;;;;;;;0.34;100.00;101543.75;5227097;28;20107;-67
2022/12/04 05:56:55;;;;;;;66.00;32.53;;;;;;;0.33;100.00;101544.66;5228002;28;20025;-67
2022/12/04 05:59:27;;;;;;;63.10;31.55;;;;;;;0.33;100.00;101542.03;5227032;28;20140;-68
2022/12/04 06:01:58;;;;;;;67.20;31.85;;;;;;;0.30;100.00;101542.09;5229011;28;20040;-67
2022/12/04 06:04:29;;;;;;;65.10;32.20;;;;;;;0.36;100.00;101540.16;5227363;28;20360;-67
2022/12/04 06:07:01;;;;;;;65.55;32.13;;;;;;;0.30;100.00;101542.94;5229097;28;20033;-68
2022/12/04 06:09:32;;;;;;;70.22;32.70;;;;;;;0.31;100.00;101535.97;5230038;28;20048;-67
2022/12/04 06:12:04;;;;;;;67.60;32.15;;;;;;;0.29;100.00;101535.09;5228992;28;20037;-67
2022/12/04 06:14:35;;;;;;;65.30;32.00;;;;;;;0.30;100.00;101537.69;5229151;28;20029;-67
2022/12/04 06:17:06;;;;;;;66.57;30.63;;;;;;;0.26;100.00;101541.28;5229733;28;20040;-68
2022/12/04 06:19:38;;;;;;;70.13;34.13;;;;;;;0.30;100.00;101542.09;5228163;28;20585;-68
2022/12/04 06:22:09;;;;;;;67.03;31.55;;;;;;;0.35;100.00;101545.47;5229269;28;20110;-67
2022/12/04 06:24:41;;;;;;;68.60;31.63;;;;;;;0.35;100.00;101540.22;5228060;28;20387;-67
2022/12/04 06:27:12;;;;;;;64.13;30.80;;;;;;;0.43;100.00;101547.94;5227860;28;20404;-67
2022/12/04 06:29:43;;;;;;;66.45;31.58;;;;;;;0.33;100.00;101542.03;5229315;28;20503;-67
2022/12/04 06:32:14;;;;;;;66.60;31.48;;;;;;;0.31;100.00;101547.31;5227601;28;20454;-68
2022/12/04 06:34:51;;;;;;;68.07;32.05;;;;;;;0.31;100.00;101547.31;5228414;28;20060;-68
2022/12/04 06:37:23;;;;;;;65.95;31.20;;;;;;;0.35;100.00;101540.22;5229878;28;20021;-67
2022/12/04 06:39:55;;;;;;;65.22;30.73;;;;;;;0.31;100.00;101543.81;5231020;28;20052;-67
2022/12/04 06:42:26;;;;;;;68.65;33.55;;;;;;;0.34;100.00;101551.63;5231381;28;20033;-67
2022/12/04 06:44:57;;;;;;;66.70;32.03;;;;;;;0.36;100.00;101542.78;5231920;28;20034;-68
2022/12/04 06:47:28;;;;;;;67.53;31.67;;;;;;;0.36;100.00;101541.94;5229889;28;20476;-68
2022/12/04 06:50:00;;;;;;;71.68;32.38;;;;;;;0.38;100.00;101545.41;5227313;28;20030;-67
2022/12/04 06:52:33;;;;;;;70.40;33.03;;;;;;;0.37;100.00;101544.53;5229959;28;20430;-68
2022/12/04 06:55:04;;;;;;;65.22;30.95;;;;;;;0.35;100.00;101543.72;5229855;28;20541;-68
2022/12/04 06:57:36;;;;;;;66.47;31.10;;;;;;;0.33;100.00;101555.16;5229811;28;20071;-68
2022/12/04 07:00:07;;;;;;;65.60;31.35;;;;;;;0.40;100.00;101554.09;5229943;28;20029;-68
2022/12/04 07:02:39;;;;;;;65.00;30.85;;;;;;;0.46;100.00;101559.22;5228290;28;20032;-68
2022/12/04 07:05:10;;;;;;;69.18;32.97;;;;;;;0.43;100.00;101567.16;5227442;28;20120;-68
2022/12/04 07:07:41;;;;;;;63.22;30.67;;;;;;;0.43;100.00;101563.69;5228623;28;20672;-68
2022/12/04 07:10:13;;;;;;;70.93;32.10;;;;;;;0.41;100.00;101561.09;5230306;28;20029;-68
2022/12/04 07:12:44;;;;;;;65.50;31.38;;;;;;;0.38;100.00;101562.03;5229155;28;20021;-68
2022/12/04 07:15:15;;;;;;;67.43;31.13;;;;;;;0.41;100.00;101561.09;5227319;28;20030;-68
2022/12/04 07:17:47;;;;;;;66.18;32.63;;;;;;;0.43;100.00;101569.78;5229830;28;20037;-68
2022/12/04 07:20:18;;;;;;;66.43;31.83;;;;;;;0.48;100.00;101572.28;5224601;28;20026;-68
2022/12/04 07:22:49;;;;;;;64.22;32.45;;;;;;;0.43;100.00;101572.41;5225366;28;20049;-68
2022/12/04 07:25:21;;;;;;;64.70;32.63;;;;;;;0.39;100.00;101571.63;5227946;28;20033;-68
2022/12/04 07:27:52;;;;;;;64.38;31.08;;;;;;;0.41;100.00;101584.72;5229584;28;20025;-68
2022/12/04 07:30:23;;;;;;;66.65;31.90;;;;;;;0.44;100.00;101583.78;5229555;28;20721;-68
2022/12/04 07:32:54;;;;;;;64.95;30.92;;;;;;;0.50;100.00;101584.50;5244983;28;20826;-68
2022/12/04 07:35:26;;;;;;;62.83;31.75;;;;;;;0.46;100.00;101577.59;5225251;28;20123;-68
2022/12/04 07:37:57;;;;;;;68.22;32.20;;;;;;;0.47;100.00;101579.31;5231120;28;20025;-68
2022/12/04 07:40:29;;;;;;;67.40;31.75;;;;;;;0.48;100.00;101581.06;5230382;28;20035;-68
2022/12/04 07:43:00;;;;;;;59.92;30.55;;;;;;;0.46;100.00;101580.22;5227593;28;20026;-68
2022/12/04 07:45:31;;;;;;;62.10;30.30;;;;;;;0.42;100.00;101582.94;5227690;28;20499;-69
2022/12/04 07:48:03;;;;;;;59.40;28.88;;;;;;;0.42;100.00;101572.44;5226705;28;20033;-68
2022/12/04 07:50:34;;;;;;;61.05;30.50;;;;;;;0.43;100.00;101579.44;5230063;28;20029;-68
2022/12/04 07:53:05;;;;;;;60.67;30.48;;;;;;;0.45;100.00;101586.38;5224050;28;20125;-68
2022/12/04 07:55:36;;;;;;;60.83;29.02;;;;;;;0.45;100.00;101590.75;5228900;28;20056;-68
2022/12/04 07:58:08;;;;;;;61.00;29.48;;;;;;;0.49;100.00;101581.91;5227710;28;20029;-68
2022/12/04 08:00:39;;;;;;;57.28;28.35;;;;;;;0.48;100.00;101591.56;5229063;28;20025;-68
2022/12/04 08:03:10;;;;;;;55.45;28.23;;;;;;;0.45;100.00;101586.38;5228625;28;20436;-68
2022/12/04 08:05:41;;;;;;;57.90;28.98;;;;;;;0.49;100.00;101595.91;5228269;28;20472;-68
2022/12/04 08:08:13;;;;;;;59.08;28.25;;;;;;;0.50;100.00;101587.13;5224827;28;20037;-68
2022/12/04 08:10:44;;;;;;;54.75;28.33;;;;;;;0.50;100.00;101595.00;5228188;28;20108;-73
2022/12/04 08:13:15;;;;;;;56.63;28.17;;;;;;;0.49;100.00;101598.53;5227015;28;20037;-72
2022/12/04 08:15:46;;;;;;;55.50;27.42;;;;;;;0.55;100.00;101595.75;5229238;28;20025;-73
2022/12/04 08:18:18;;;;;;;55.40;27.98;;;;;;;0.65;100.00;101603.41;5224573;28;20104;-72
2022/12/04 08:20:49;;;;;;;54.42;26.23;;;;;;;0.55;100.00;101601.00;5224641;28;20033;-73
2022/12/04 08:23:20;;;;;;;55.63;27.50;;;;;;;0.62;100.00;101603.50;5222680;28;20691;-73
2022/12/04 08:25:52;;;;;;;56.35;28.05;;;;;;;0.58;100.00;101608.81;5225131;28;20446;-72
2022/12/04 08:28:23;;;;;;;55.20;27.20;;;;;;;0.57;100.00;101604.44;5224214;28;20418;-73
2022/12/04 08:31:00;;;;;;;53.05;27.10;;;;;;;0.59;100.00;101614.94;5226139;28;20459;-73
2022/12/04 08:33:32;;;;;;;51.65;26.98;;;;;;;0.57;100.00;101612.34;5225333;28;20588;-73
2022/12/04 08:36:09;;;;;;;53.60;26.52;;;;;;;0.61;100.00;101614.91;5227544;28;20453;-72
2022/12/04 08:38:40;;;;;;;53.42;26.95;;;;;;;0.68;100.00;101603.38;5223819;28;20030;-73
2022/12/04 08:41:14;;;;;;;51.53;25.65;;;;;;;0.67;100.00;101602.50;5226029;28;20507;-73
2022/12/04 08:43:46;;;;;;;59.88;26.17;;;;;;;0.66;100.00;101607.78;5228402;28;20522;-73
2022/12/04 08:46:17;;;;;;;48.90;25.13;;;;;;;0.67;100.00;101597.25;5227546;28;20026;-73
2022/12/04 08:48:48;;;;;;;51.28;24.92;;;;;;;0.70;100.00;101591.91;5223394;28;20395;-73
2022/12/04 08:51:23;;;;;;;46.90;24.52;;;;;;;0.67;100.00;101586.75;5227171;28;20033;-73
2022/12/04 08:54:01;;;;;;;49.10;25.40;;;;;;;0.69;100.00;101595.47;5227226;28;20057;-73
2022/12/04 08:56:33;;;;;;;45.15;23.80;;;;;;;0.70;100.00;101589.28;5230315;28;20526;-73
2022/12/04 08:59:05;;;;;;;43.92;23.52;;;;;;;0.73;100.00;101590.97;5230049;28;20806;-72
2022/12/04 09:01:36;;;;;;;43.47;22.88;;;;;;;0.75;100.00;101591.81;5228273;28;20029;-72
2022/12/04 09:04:08;;;;;;;45.65;23.33;;;;;;;0.82;100.00;101582.03;5229443;28;20033;-73
2022/12/04 09:06:39;;;;;;;43.40;23.73;;;;;;;0.89;100.00;101589.72;5230706;28;20033;-73
2022/12/04 09:09:11;;;;;;;45.60;23.65;;;;;;;0.84;100.00;101582.84;5230710;28;20170;-73
2022/12/04 09:11:45;;;;;;;43.55;22.48;;;;;;;0.87;100.00;101598.53;5228763;28;20108;-73
2022/12/04 09:14:18;;;;;;;45.23;22.70;;;;;;;0.89;100.00;101589.72;5228081;28;20120;-73
2022/12/04 09:16:49;;;;;;;42.58;22.33;;;;;;;0.97;100.00;101595.63;5231978;28;20026;-73
2022/12/04 09:19:20;;;;;;;42.05;21.75;;;;;;;0.94;100.00;101594.84;5231600;28;20495;-72
2022/12/04 09:21:51;;;;;;;43.47;22.85;;;;;;;0.97;100.00;101595.63;5233966;28;20060;-73
2022/12/04 09:24:23;;;;;;;42.92;22.15;;;;;;;1.00;100.00;101599.09;5233506;28;20029;-73
2022/12/04 09:26:54;;;;;;;38.13;20.85;;;;;;;0.98;100.00;101601.78;5231517;28;20033;-72
2022/12/04 09:29:25;;;;;;;41.03;21.08;;;;;;;0.99;100.00;101606.13;5229266;28;20025;-72
2022/12/04 09:31:56;;;;;;;42.83;22.52;;;;;;;1.04;100.00;101603.41;5236432;28;20376;-72
2022/12/04 09:34:28;;;;;;;41.13;20.40;;;;;;;1.01;100.00;101604.31;5228427;28;20033;-73
2022/12/04 09:36:59;;;;;;;38.22;20.80;;;;;;;1.04;100.00;101601.63;5231813;28;20084;-73
2022/12/04 09:39:30;;;;;;;38.83;20.75;;;;;;;1.05;100.00;101607.72;5232752;28;20037;-72
2022/12/04 09:42:12;;;;;;;38.22;21.42;;;;;;;1.08;100.00;101603.28;5232183;28;20056;-73
2022/12/04 09:45:13;;;;;;;41.28;21.25;;;;;;;1.10;100.00;101603.25;5221888;28;20080;-73
2022/12/04 09:47:49;;;;;;;41.22;21.40;;;;;;;1.12;100.00;101598.81;5230841;28;20353;-72
2022/12/04 09:50:24;;;;;;;38.83;20.30;;;;;;;1.11;100.00;101600.56;5231984;28;20033;-73
2022/12/04 09:53:25;;;;;;;39.47;20.77;;;;;;;1.12;100.00;101606.69;5234103;28;20037;-73
2022/12/04 09:55:56;;;;;;;37.22;19.38;;;;;;;1.11;100.00;101605.84;5224994;28;20053;-73
2022/12/04 09:58:54;;;;;;;37.47;20.33;;;;;;;1.15;100.00;101611.84;5230357;28;20026;-73
2022/12/04 10:01:46;;;;;;;34.83;18.90;;;;;;;1.14;100.00;101613.63;5235849;28;20057;-73
2022/12/04 10:04:18;;;;;;;34.05;18.92;;;;;;;1.12;100.00;101612.81;5234655;28;20414;-73
2022/12/04 10:07:15;;;;;;;33.42;18.65;;;;;;;1.14;100.00;101611.00;5229674;28;20036;-73
2022/12/04 10:09:59;;;;;;;33.13;18.77;;;;;;;1.07;100.00;101608.56;5228910;28;20053;-73
2022/12/04 10:12:55;;;;;;;34.47;18.00;;;;;;;1.04;100.00;101614.75;5245724;28;20034;-73
2022/12/04 10:16:11;;;;;;;34.38;18.55;;;;;;;1.05;100.00;101602.47;5229773;28;20086;-73
2022/12/04 10:19:02;;;;;;;34.55;18.55;;;;;;;1.01;100.00;101604.31;5229099;28;20040;-73
2022/12/04 10:22:11;;;;;;;33.17;18.02;;;;;;;1.05;100.00;101594.59;5229005;28;20033;-73
2022/12/04 10:24:50;;;;;;;31.55;17.52;;;;;;;1.05;100.00;101595.44;5229988;28;20037;-73
2022/12/04 10:27:29;;;;;;;37.83;18.65;;;;;;;1.08;100.00;101595.38;5229138;28;20041;-73
2022/12/04 10:30:06;;;;;;;31.17;16.60;;;;;;;1.01;100.00;101595.56;5237720;28;20029;-73
2022/12/04 10:32:37;;;;;;;32.83;17.85;;;;;;;1.00;100.00;101593.84;5230181;28;20042;-73
2022/12/04 10:35:20;;;;;;;34.47;18.60;;;;;;;1.02;100.00;101599.91;5227593;28;20614;-73
2022/12/04 10:37:57;;;;;;;32.70;17.95;;;;;;;0.98;100.00;101602.63;5231129;28;20068;-73
2022/12/04 10:40:39;;;;;;;32.53;17.48;;;;;;;0.99;100.00;101598.22;5229111;28;20465;-73
2022/12/04 10:43:39;;;;;;;35.70;19.52;;;;;;;1.09;100.00;101606.75;5230613;28;20408;-73
2022/12/04 10:46:14;;;;;;;32.25;17.48;;;;;;;0.97;100.00;101608.78;5229403;28;20094;-73
2022/12/04 10:48:49;;;;;;;34.83;19.80;;;;;;;1.00;100.00;101607.84;5232227;28;20044;-73
2022/12/04 10:51:21;;;;;;;33.13;18.20;;;;;;;0.96;100.00;101601.81;5234516;28;20033;-73
2022/12/04 10:53:55;;;;;;;32.75;18.80;;;;;;;1.00;100.00;101604.34;5232400;28;20596;-72
2022/12/04 10:56:26;;;;;;;35.65;20.25;;;;;;;0.99;100.00;101598.22;5230056;28;20033;-73
2022/12/04 10:59:04;;;;;;;35.42;20.25;;;;;;;0.96;100.00;101599.19;5230626;28;20035;-73
2022/12/04 11:01:35;;;;;;;39.08;19.73;;;;;;;0.93;100.00;101577.38;5226618;28;20025;-73
2022/12/04 11:04:17;;;;;;;33.83;18.70;;;;;;;0.95;100.00;101586.94;5233952;28;20751;-72
2022/12/04 11:06:51;;;;;;;37.72;21.33;;;;;;;0.95;100.00;101583.44;5233557;28;20028;-73
2022/12/04 11:09:23;;;;;;;33.60;19.48;;;;;;;0.95;100.00;101584.31;5230061;28;20021;-73
2022/12/04 11:12:15;;;;;;;34.78;19.67;;;;;;;0.94;100.00;101585.22;5229605;28;20643;-73
2022/12/04 11:14:46;;;;;;;35.38;18.80;;;;;;;0.93;100.00;101583.47;5230943;28;20029;-72
2022/12/04 11:17:18;;;;;;;33.28;18.67;;;;;;;0.94;100.00;101579.97;5233657;28;20384;-73
2022/12/04 11:20:03;;;;;;;34.88;18.67;;;;;;;0.95;100.00;101573.78;5230959;28;20061;-73
2022/12/04 11:22:47;;;;;;;32.88;19.10;;;;;;;0.91;100.00;101561.63;5230321;28;20029;-73
2022/12/04 11:25:20;;;;;;;31.48;18.73;;;;;;;0.97;100.00;101555.38;5231015;28;20037;-73
2022/12/04 11:27:58;;;;;;;36.15;19.80;;;;;;;0.94;100.00;101568.56;5231490;28;20476;-73
2022/12/04 11:30:35;;;;;;;35.53;19.30;;;;;;;0.95;100.00;101555.41;5228589;28;20105;-72
2022/12/04 11:33:17;;;;;;;34.58;19.73;;;;;;;0.94;100.00;101553.69;5230657;28;20048;-73
2022/12/04 11:35:52;;;;;;;33.83;19.35;;;;;;;0.97;100.00;101558.84;5232335;28;20120;-71
2022/12/04 11:38:27;;;;;;;32.65;19.17;;;;;;;1.00;100.00;101555.31;5221914;28;20067;-73
2022/12/04 11:40:59;;;;;;;33.70;19.30;;;;;;;0.98;100.00;101551.84;5226344;28;20090;-73
2022/12/04 11:43:32;;;;;;;34.22;19.05;;;;;;;1.00;100.00;101560.56;5229035;28;20017;-72
2022/12/04 11:46:05;;;;;;;34.67;19.50;;;;;;;1.04;100.00;101556.09;5231609;28;20061;-73
2022/12/04 11:48:43;;;;;;;33.72;19.55;;;;;;;1.03;100.00;101556.97;5230160;28;20541;-73
2022/12/04 11:51:36;;;;;;;31.58;18.63;;;;;;;1.01;100.00;101561.41;5226895;28;20037;-74
2022/12/04 11:54:37;;;;;;;34.40;19.33;;;;;;;1.07;100.00;101564.72;5224112;28;20512;-74
2022/12/04 11:57:25;;;;;;;32.58;18.48;;;;;;;1.02;100.00;101561.38;5216387;28;20028;-73
2022/12/04 12:00:18;;;;;;;31.98;18.65;;;;;;;1.01;100.00;101558.78;5260309;28;20040;-73
2022/12/04 12:03:14;;;;;;;32.08;19.13;;;;;;;1.01;100.00;101561.41;5228496;28;20029;-73
2022/12/04 12:06:07;;;;;;;30.27;18.05;;;;;;;1.00;100.00;101557.03;5227036;28;20365;-73